<?xml version="1.0" encoding="UTF-8" standalone="no" ?>
<gpx xmlns="http://www.topografix.com/GPX/1/1" xmlns:xsi="http://www.w3.org/2001/XMLSchema-instance" xsi:schemaLocation="http://www.topografix.com/GPX/1/1 http://www.topografix.com/GPX/1/1/gpx.xsd" version="1.1" creator="VisuGPX - https://www.visugpx.com">
  <metadata>
    <name>160822 - Croix de Lorraine</name>
    <desc><![CDATA[Circuit en handbike du 22 août 2016]]></desc>
  </metadata>
  <trk>
    <name><![CDATA[160822 - Croix de Lorraine]]></name>
    <trkseg>
      <trkpt lat="49.32661" lon="-0.38085">
        <ele>10</ele>
      </trkpt>
      <trkpt lat="49.32766" lon="-0.38003">
        <ele>6.39</ele>
        <time>2016-08-22T08:31:06Z</time>
      </trkpt>
      <trkpt lat="49.32865" lon="-0.37964">
        <ele>4.46</ele>
        <time>2016-08-22T08:31:33Z</time>
      </trkpt>
      <trkpt lat="49.32902" lon="-0.38115">
        <ele>3.98</ele>
        <time>2016-08-22T08:32:12Z</time>
      </trkpt>
      <trkpt lat="49.32994" lon="-0.38442">
        <ele>4.46</ele>
        <time>2016-08-22T08:33:16Z</time>
      </trkpt>
      <trkpt lat="49.33163" lon="-0.39288">
        <ele>5.91</ele>
        <time>2016-08-22T08:36:13Z</time>
      </trkpt>
      <trkpt lat="49.3321" lon="-0.39414">
        <ele>6.87</ele>
        <time>2016-08-22T08:36:53Z</time>
      </trkpt>
      <trkpt lat="49.33249" lon="-0.39493">
        <ele>8.31</ele>
        <time>2016-08-22T08:37:27Z</time>
      </trkpt>
      <trkpt lat="49.3327" lon="-0.39621">
        <ele>8.79</ele>
        <time>2016-08-22T08:38:34Z</time>
      </trkpt>
      <trkpt lat="49.33306" lon="-0.40098">
        <ele>8.79</ele>
        <time>2016-08-22T08:39:40Z</time>
      </trkpt>
      <trkpt lat="49.33329" lon="-0.40114">
        <ele>8.31</ele>
        <time>2016-08-22T08:39:59Z</time>
      </trkpt>
      <trkpt lat="49.33349" lon="-0.40178">
        <ele>8.31</ele>
        <time>2016-08-22T08:40:19Z</time>
      </trkpt>
      <trkpt lat="49.33357" lon="-0.40225">
        <ele>7.83</ele>
        <time>2016-08-22T08:41:18Z</time>
      </trkpt>
      <trkpt lat="49.33434" lon="-0.40475">
        <ele>3.5</ele>
        <time>2016-08-22T08:48:46Z</time>
      </trkpt>
      <trkpt lat="49.33451" lon="-0.40583">
        <ele>3.98</ele>
        <time>2016-08-22T08:49:05Z</time>
      </trkpt>
      <trkpt lat="49.33469" lon="-0.40687">
        <ele>4.46</ele>
        <time>2016-08-22T08:49:25Z</time>
      </trkpt>
      <trkpt lat="49.33485" lon="-0.40789">
        <ele>3.98</ele>
        <time>2016-08-22T08:49:44Z</time>
      </trkpt>
      <trkpt lat="49.33505" lon="-0.40907">
        <ele>3.98</ele>
        <time>2016-08-22T08:50:04Z</time>
      </trkpt>
      <trkpt lat="49.33522" lon="-0.41002">
        <ele>3.98</ele>
        <time>2016-08-22T08:50:24Z</time>
      </trkpt>
      <trkpt lat="49.3352" lon="-0.41049">
        <ele>4.46</ele>
        <time>2016-08-22T08:50:43Z</time>
      </trkpt>
      <trkpt lat="49.33535" lon="-0.4109">
        <ele>4.94</ele>
        <time>2016-08-22T08:50:55Z</time>
      </trkpt>
      <trkpt lat="49.33546" lon="-0.41183">
        <ele>4.94</ele>
        <time>2016-08-22T08:51:14Z</time>
      </trkpt>
      <trkpt lat="49.33555" lon="-0.41287">
        <ele>4.94</ele>
        <time>2016-08-22T08:51:33Z</time>
      </trkpt>
      <trkpt lat="49.3356" lon="-0.41401">
        <ele>4.94</ele>
        <time>2016-08-22T08:51:51Z</time>
      </trkpt>
      <trkpt lat="49.33564" lon="-0.41532">
        <ele>4.94</ele>
        <time>2016-08-22T08:52:13Z</time>
      </trkpt>
      <trkpt lat="49.33564" lon="-0.41639">
        <ele>4.94</ele>
        <time>2016-08-22T08:52:31Z</time>
      </trkpt>
      <trkpt lat="49.33564" lon="-0.41721">
        <ele>4.94</ele>
        <time>2016-08-22T08:52:49Z</time>
      </trkpt>
      <trkpt lat="49.33561" lon="-0.41732">
        <ele>5.42</ele>
        <time>2016-08-22T08:52:56Z</time>
      </trkpt>
      <trkpt lat="49.33567" lon="-0.41745">
        <ele>4.94</ele>
        <time>2016-08-22T08:53:00Z</time>
      </trkpt>
      <trkpt lat="49.33577" lon="-0.41835">
        <ele>4.94</ele>
        <time>2016-08-22T08:53:18Z</time>
      </trkpt>
      <trkpt lat="49.33582" lon="-0.41933">
        <ele>4.94</ele>
        <time>2016-08-22T08:53:40Z</time>
      </trkpt>
      <trkpt lat="49.33572" lon="-0.41982">
        <ele>4.94</ele>
        <time>2016-08-22T08:54:00Z</time>
      </trkpt>
      <trkpt lat="49.33564" lon="-0.42049">
        <ele>5.42</ele>
        <time>2016-08-22T08:54:20Z</time>
      </trkpt>
      <trkpt lat="49.33558" lon="-0.42128">
        <ele>5.91</ele>
        <time>2016-08-22T08:54:40Z</time>
      </trkpt>
      <trkpt lat="49.33551" lon="-0.42216">
        <ele>6.39</ele>
        <time>2016-08-22T08:55:05Z</time>
      </trkpt>
      <trkpt lat="49.33548" lon="-0.42289">
        <ele>6.39</ele>
        <time>2016-08-22T08:55:26Z</time>
      </trkpt>
      <trkpt lat="49.33541" lon="-0.42357">
        <ele>6.39</ele>
        <time>2016-08-22T08:55:42Z</time>
      </trkpt>
      <trkpt lat="49.33525" lon="-0.42422">
        <ele>7.35</ele>
        <time>2016-08-22T08:56:04Z</time>
      </trkpt>
      <trkpt lat="49.33523" lon="-0.42437">
        <ele>6.87</ele>
        <time>2016-08-22T08:56:24Z</time>
      </trkpt>
      <trkpt lat="49.33523" lon="-0.42437">
        <ele>7.35</ele>
        <time>2016-08-22T08:56:36Z</time>
      </trkpt>
      <trkpt lat="49.33536" lon="-0.42454">
        <ele>6.87</ele>
        <time>2016-08-22T08:56:47Z</time>
      </trkpt>
      <trkpt lat="49.33533" lon="-0.42509">
        <ele>6.87</ele>
        <time>2016-08-22T08:57:12Z</time>
      </trkpt>
      <trkpt lat="49.3353" lon="-0.42573">
        <ele>6.87</ele>
        <time>2016-08-22T08:57:32Z</time>
      </trkpt>
      <trkpt lat="49.33525" lon="-0.42649">
        <ele>7.35</ele>
        <time>2016-08-22T08:57:56Z</time>
      </trkpt>
      <trkpt lat="49.3352" lon="-0.42658">
        <ele>6.87</ele>
        <time>2016-08-22T08:57:59Z</time>
      </trkpt>
      <trkpt lat="49.33482" lon="-0.42633">
        <ele>5.91</ele>
        <time>2016-08-22T08:58:15Z</time>
      </trkpt>
      <trkpt lat="49.33471" lon="-0.42616">
        <ele>6.87</ele>
        <time>2016-08-22T08:58:47Z</time>
      </trkpt>
      <trkpt lat="49.33493" lon="-0.42494">
        <ele>6.87</ele>
        <time>2016-08-22T08:59:03Z</time>
      </trkpt>
      <trkpt lat="49.33493" lon="-0.42477">
        <ele>6.87</ele>
        <time>2016-08-22T08:59:15Z</time>
      </trkpt>
      <trkpt lat="49.33491" lon="-0.42451">
        <ele>6.87</ele>
        <time>2016-08-22T08:59:24Z</time>
      </trkpt>
      <trkpt lat="49.33441" lon="-0.42447">
        <ele>6.39</ele>
        <time>2016-08-22T08:59:37Z</time>
      </trkpt>
      <trkpt lat="49.33376" lon="-0.42451">
        <ele>5.42</ele>
        <time>2016-08-22T09:00:28Z</time>
      </trkpt>
      <trkpt lat="49.33326" lon="-0.42451">
        <ele>5.42</ele>
        <time>2016-08-22T09:00:54Z</time>
      </trkpt>
      <trkpt lat="49.33274" lon="-0.42452">
        <ele>5.91</ele>
        <time>2016-08-22T09:01:08Z</time>
      </trkpt>
      <trkpt lat="49.33139" lon="-0.4241">
        <ele>7.35</ele>
        <time>2016-08-22T09:01:37Z</time>
      </trkpt>
      <trkpt lat="49.33129" lon="-0.42414">
        <ele>7.35</ele>
        <time>2016-08-22T09:01:44Z</time>
      </trkpt>
      <trkpt lat="49.33076" lon="-0.4245">
        <ele>6.87</ele>
        <time>2016-08-22T09:02:01Z</time>
      </trkpt>
      <trkpt lat="49.33011" lon="-0.42478">
        <ele>6.39</ele>
        <time>2016-08-22T09:02:22Z</time>
      </trkpt>
      <trkpt lat="49.32903" lon="-0.42524">
        <ele>5.91</ele>
        <time>2016-08-22T09:02:50Z</time>
      </trkpt>
      <trkpt lat="49.32881" lon="-0.42629">
        <ele>4.94</ele>
        <time>2016-08-22T09:03:05Z</time>
      </trkpt>
      <trkpt lat="49.3289" lon="-0.42669">
        <ele>5.91</ele>
        <time>2016-08-22T09:03:11Z</time>
      </trkpt>
      <trkpt lat="49.32938" lon="-0.43298">
        <ele>9.27</ele>
        <time>2016-08-22T09:04:49Z</time>
      </trkpt>
      <trkpt lat="49.32942" lon="-0.43374">
        <ele>10.71</ele>
        <time>2016-08-22T09:05:10Z</time>
      </trkpt>
      <trkpt lat="49.32949" lon="-0.43417">
        <ele>10.23</ele>
        <time>2016-08-22T09:05:18Z</time>
      </trkpt>
      <trkpt lat="49.3295" lon="-0.43574">
        <ele>11.19</ele>
        <time>2016-08-22T09:05:47Z</time>
      </trkpt>
      <trkpt lat="49.32948" lon="-0.43637">
        <ele>10.23</ele>
        <time>2016-08-22T09:06:00Z</time>
      </trkpt>
      <trkpt lat="49.3296" lon="-0.43808">
        <ele>10.23</ele>
        <time>2016-08-22T09:06:21Z</time>
      </trkpt>
      <trkpt lat="49.3297" lon="-0.4396">
        <ele>10.71</ele>
        <time>2016-08-22T09:06:41Z</time>
      </trkpt>
      <trkpt lat="49.32973" lon="-0.44003">
        <ele>10.71</ele>
        <time>2016-08-22T09:06:46Z</time>
      </trkpt>
      <trkpt lat="49.32989" lon="-0.44229">
        <ele>10.23</ele>
        <time>2016-08-22T09:07:25Z</time>
      </trkpt>
      <trkpt lat="49.3299" lon="-0.4425">
        <ele>10.23</ele>
        <time>2016-08-22T09:07:49Z</time>
      </trkpt>
      <trkpt lat="49.33048" lon="-0.44233">
        <ele>8.31</ele>
        <time>2016-08-22T09:08:10Z</time>
      </trkpt>
      <trkpt lat="49.33052" lon="-0.44233">
        <ele>8.31</ele>
        <time>2016-08-22T09:08:11Z</time>
      </trkpt>
      <trkpt lat="49.33062" lon="-0.44239">
        <ele>7.83</ele>
        <time>2016-08-22T09:08:13Z</time>
      </trkpt>
      <trkpt lat="49.33103" lon="-0.44294">
        <ele>5.91</ele>
        <time>2016-08-22T09:08:25Z</time>
      </trkpt>
      <trkpt lat="49.3314" lon="-0.44251">
        <ele>6.39</ele>
        <time>2016-08-22T09:08:37Z</time>
      </trkpt>
      <trkpt lat="49.33189" lon="-0.44155">
        <ele>5.91</ele>
        <time>2016-08-22T09:08:57Z</time>
      </trkpt>
      <trkpt lat="49.33192" lon="-0.4415">
        <ele>5.91</ele>
        <time>2016-08-22T09:08:58Z</time>
      </trkpt>
      <trkpt lat="49.33266" lon="-0.44104">
        <ele>6.39</ele>
        <time>2016-08-22T09:09:18Z</time>
      </trkpt>
      <trkpt lat="49.33313" lon="-0.44113">
        <ele>6.87</ele>
        <time>2016-08-22T09:09:34Z</time>
      </trkpt>
      <trkpt lat="49.33317" lon="-0.44129">
        <ele>6.87</ele>
        <time>2016-08-22T09:09:42Z</time>
      </trkpt>
      <trkpt lat="49.33384" lon="-0.44144">
        <ele>5.42</ele>
        <time>2016-08-22T09:10:05Z</time>
      </trkpt>
      <trkpt lat="49.33451" lon="-0.44177">
        <ele>5.91</ele>
        <time>2016-08-22T09:10:24Z</time>
      </trkpt>
      <trkpt lat="49.33499" lon="-0.44202">
        <ele>7.35</ele>
        <time>2016-08-22T09:10:35Z</time>
      </trkpt>
      <trkpt lat="49.33531" lon="-0.44234">
        <ele>7.83</ele>
        <time>2016-08-22T09:12:26Z</time>
      </trkpt>
      <trkpt lat="49.33533" lon="-0.44254">
        <ele>7.83</ele>
        <time>2016-08-22T09:13:39Z</time>
      </trkpt>
      <trkpt lat="49.33541" lon="-0.44311">
        <ele>7.35</ele>
        <time>2016-08-22T09:14:05Z</time>
      </trkpt>
      <trkpt lat="49.33549" lon="-0.44367">
        <ele>7.35</ele>
        <time>2016-08-22T09:14:21Z</time>
      </trkpt>
      <trkpt lat="49.33555" lon="-0.44394">
        <ele>7.83</ele>
        <time>2016-08-22T09:14:35Z</time>
      </trkpt>
      <trkpt lat="49.33557" lon="-0.44403">
        <ele>8.31</ele>
        <time>2016-08-22T09:15:03Z</time>
      </trkpt>
      <trkpt lat="49.3356" lon="-0.44408">
        <ele>2.06</ele>
        <time>2016-08-22T09:24:02Z</time>
      </trkpt>
      <trkpt lat="49.33561" lon="-0.44434">
        <ele>4.94</ele>
        <time>2016-08-22T09:24:08Z</time>
      </trkpt>
      <trkpt lat="49.33567" lon="-0.44482">
        <ele>7.35</ele>
        <time>2016-08-22T09:24:15Z</time>
      </trkpt>
      <trkpt lat="49.33569" lon="-0.44502">
        <ele>7.83</ele>
        <time>2016-08-22T09:24:19Z</time>
      </trkpt>
      <trkpt lat="49.33561" lon="-0.44517">
        <ele>7.83</ele>
        <time>2016-08-22T09:24:23Z</time>
      </trkpt>
      <trkpt lat="49.33543" lon="-0.44524">
        <ele>9.27</ele>
        <time>2016-08-22T09:24:29Z</time>
      </trkpt>
      <trkpt lat="49.33537" lon="-0.44532">
        <ele>10.23</ele>
        <time>2016-08-22T09:24:32Z</time>
      </trkpt>
      <trkpt lat="49.33537" lon="-0.44621">
        <ele>11.19</ele>
        <time>2016-08-22T09:24:56Z</time>
      </trkpt>
      <trkpt lat="49.33538" lon="-0.44713">
        <ele>12.15</ele>
        <time>2016-08-22T09:25:14Z</time>
      </trkpt>
      <trkpt lat="49.33539" lon="-0.44844">
        <ele>11.67</ele>
        <time>2016-08-22T09:25:40Z</time>
      </trkpt>
      <trkpt lat="49.33543" lon="-0.44931">
        <ele>12.15</ele>
        <time>2016-08-22T09:26:00Z</time>
      </trkpt>
      <trkpt lat="49.33548" lon="-0.44989">
        <ele>12.15</ele>
        <time>2016-08-22T09:26:16Z</time>
      </trkpt>
      <trkpt lat="49.33553" lon="-0.45067">
        <ele>11.67</ele>
        <time>2016-08-22T09:26:34Z</time>
      </trkpt>
      <trkpt lat="49.33555" lon="-0.45134">
        <ele>12.15</ele>
        <time>2016-08-22T09:26:54Z</time>
      </trkpt>
      <trkpt lat="49.33552" lon="-0.45188">
        <ele>11.67</ele>
        <time>2016-08-22T09:27:10Z</time>
      </trkpt>
      <trkpt lat="49.33546" lon="-0.45189">
        <ele>11.19</ele>
        <time>2016-08-22T09:27:15Z</time>
      </trkpt>
      <trkpt lat="49.33542" lon="-0.45202">
        <ele>11.19</ele>
        <time>2016-08-22T09:28:08Z</time>
      </trkpt>
      <trkpt lat="49.33547" lon="-0.4524">
        <ele>11.67</ele>
        <time>2016-08-22T09:28:29Z</time>
      </trkpt>
      <trkpt lat="49.33551" lon="-0.45292">
        <ele>11.67</ele>
        <time>2016-08-22T09:28:52Z</time>
      </trkpt>
      <trkpt lat="49.33556" lon="-0.4534">
        <ele>12.15</ele>
        <time>2016-08-22T09:29:10Z</time>
      </trkpt>
      <trkpt lat="49.33558" lon="-0.45384">
        <ele>12.15</ele>
        <time>2016-08-22T09:29:27Z</time>
      </trkpt>
      <trkpt lat="49.33565" lon="-0.45435">
        <ele>12.15</ele>
        <time>2016-08-22T09:29:42Z</time>
      </trkpt>
      <trkpt lat="49.33574" lon="-0.45496">
        <ele>12.15</ele>
        <time>2016-08-22T09:30:07Z</time>
      </trkpt>
      <trkpt lat="49.33583" lon="-0.45558">
        <ele>12.15</ele>
        <time>2016-08-22T09:30:27Z</time>
      </trkpt>
      <trkpt lat="49.33592" lon="-0.45615">
        <ele>12.15</ele>
        <time>2016-08-22T09:30:43Z</time>
      </trkpt>
      <trkpt lat="49.33599" lon="-0.45659">
        <ele>11.67</ele>
        <time>2016-08-22T09:31:00Z</time>
      </trkpt>
      <trkpt lat="49.33606" lon="-0.45679">
        <ele>11.19</ele>
        <time>2016-08-22T09:31:23Z</time>
      </trkpt>
      <trkpt lat="49.33605" lon="-0.45694">
        <ele>11.67</ele>
        <time>2016-08-22T09:31:50Z</time>
      </trkpt>
      <trkpt lat="49.33608" lon="-0.45729">
        <ele>11.19</ele>
        <time>2016-08-22T09:32:06Z</time>
      </trkpt>
      <trkpt lat="49.33624" lon="-0.45773">
        <ele>10.71</ele>
        <time>2016-08-22T09:32:22Z</time>
      </trkpt>
      <trkpt lat="49.33617" lon="-0.45789">
        <ele>10.23</ele>
        <time>2016-08-22T09:32:31Z</time>
      </trkpt>
      <trkpt lat="49.33582" lon="-0.45835">
        <ele>10.23</ele>
        <time>2016-08-22T09:32:55Z</time>
      </trkpt>
      <trkpt lat="49.33575" lon="-0.45849">
        <ele>9.75</ele>
        <time>2016-08-22T09:33:14Z</time>
      </trkpt>
      <trkpt lat="49.33559" lon="-0.45871">
        <ele>10.23</ele>
        <time>2016-08-22T09:33:35Z</time>
      </trkpt>
      <trkpt lat="49.33529" lon="-0.45915">
        <ele>10.71</ele>
        <time>2016-08-22T09:34:11Z</time>
      </trkpt>
      <trkpt lat="49.33496" lon="-0.4596">
        <ele>9.75</ele>
        <time>2016-08-22T09:34:27Z</time>
      </trkpt>
      <trkpt lat="49.3345" lon="-0.46022">
        <ele>9.75</ele>
        <time>2016-08-22T09:34:50Z</time>
      </trkpt>
      <trkpt lat="49.33418" lon="-0.46059">
        <ele>10.71</ele>
        <time>2016-08-22T09:35:12Z</time>
      </trkpt>
      <trkpt lat="49.33379" lon="-0.46104">
        <ele>10.71</ele>
        <time>2016-08-22T09:35:32Z</time>
      </trkpt>
      <trkpt lat="49.33354" lon="-0.4615">
        <ele>10.71</ele>
        <time>2016-08-22T09:35:48Z</time>
      </trkpt>
      <trkpt lat="49.33371" lon="-0.46189">
        <ele>10.71</ele>
        <time>2016-08-22T09:36:03Z</time>
      </trkpt>
      <trkpt lat="49.334" lon="-0.46223">
        <ele>10.71</ele>
        <time>2016-08-22T09:36:17Z</time>
      </trkpt>
      <trkpt lat="49.33439" lon="-0.4625">
        <ele>10.71</ele>
        <time>2016-08-22T09:36:28Z</time>
      </trkpt>
      <trkpt lat="49.3345" lon="-0.46265">
        <ele>10.23</ele>
        <time>2016-08-22T09:36:31Z</time>
      </trkpt>
      <trkpt lat="49.33459" lon="-0.46287">
        <ele>9.27</ele>
        <time>2016-08-22T09:36:34Z</time>
      </trkpt>
      <trkpt lat="49.33469" lon="-0.46405">
        <ele>9.27</ele>
        <time>2016-08-22T09:36:47Z</time>
      </trkpt>
      <trkpt lat="49.33475" lon="-0.46546">
        <ele>8.31</ele>
        <time>2016-08-22T09:37:06Z</time>
      </trkpt>
      <trkpt lat="49.335" lon="-0.46563">
        <ele>9.27</ele>
        <time>2016-08-22T09:37:12Z</time>
      </trkpt>
      <trkpt lat="49.33566" lon="-0.46549">
        <ele>9.75</ele>
        <time>2016-08-22T09:37:26Z</time>
      </trkpt>
      <trkpt lat="49.33645" lon="-0.46489">
        <ele>11.19</ele>
        <time>2016-08-22T09:37:50Z</time>
      </trkpt>
      <trkpt lat="49.33669" lon="-0.46483">
        <ele>11.67</ele>
        <time>2016-08-22T09:38:06Z</time>
      </trkpt>
      <trkpt lat="49.33681" lon="-0.46477">
        <ele>11.19</ele>
        <time>2016-08-22T09:38:23Z</time>
      </trkpt>
      <trkpt lat="49.33699" lon="-0.46517">
        <ele>11.67</ele>
        <time>2016-08-22T09:38:38Z</time>
      </trkpt>
      <trkpt lat="49.33713" lon="-0.46589">
        <ele>11.19</ele>
        <time>2016-08-22T09:38:53Z</time>
      </trkpt>
      <trkpt lat="49.33726" lon="-0.46655">
        <ele>13.12</ele>
        <time>2016-08-22T09:39:07Z</time>
      </trkpt>
      <trkpt lat="49.33736" lon="-0.46709">
        <ele>14.08</ele>
        <time>2016-08-22T09:39:26Z</time>
      </trkpt>
      <trkpt lat="49.33745" lon="-0.46762">
        <ele>14.08</ele>
        <time>2016-08-22T09:39:47Z</time>
      </trkpt>
      <trkpt lat="49.33736" lon="-0.46765">
        <ele>13.12</ele>
        <time>2016-08-22T09:45:45Z</time>
      </trkpt>
      <trkpt lat="49.33736" lon="-0.4676">
        <ele>13.12</ele>
        <time>2016-08-22T09:46:09Z</time>
      </trkpt>
      <trkpt lat="49.3374" lon="-0.46754">
        <ele>13.6</ele>
        <time>2016-08-22T09:46:15Z</time>
      </trkpt>
      <trkpt lat="49.33755" lon="-0.46757">
        <ele>12.63</ele>
        <time>2016-08-22T09:46:42Z</time>
      </trkpt>
      <trkpt lat="49.33748" lon="-0.46757">
        <ele>13.12</ele>
        <time>2016-08-22T09:47:09Z</time>
      </trkpt>
      <trkpt lat="49.33741" lon="-0.46718">
        <ele>13.12</ele>
        <time>2016-08-22T09:47:28Z</time>
      </trkpt>
      <trkpt lat="49.33735" lon="-0.46677">
        <ele>12.15</ele>
        <time>2016-08-22T09:47:54Z</time>
      </trkpt>
      <trkpt lat="49.33725" lon="-0.46622">
        <ele>11.19</ele>
        <time>2016-08-22T09:48:17Z</time>
      </trkpt>
      <trkpt lat="49.3371" lon="-0.46563">
        <ele>10.23</ele>
        <time>2016-08-22T09:48:33Z</time>
      </trkpt>
      <trkpt lat="49.33692" lon="-0.46502">
        <ele>9.75</ele>
        <time>2016-08-22T09:48:58Z</time>
      </trkpt>
      <trkpt lat="49.33689" lon="-0.46427">
        <ele>9.27</ele>
        <time>2016-08-22T09:49:16Z</time>
      </trkpt>
      <trkpt lat="49.33686" lon="-0.46384">
        <ele>8.79</ele>
        <time>2016-08-22T09:49:30Z</time>
      </trkpt>
      <trkpt lat="49.33671" lon="-0.46304">
        <ele>8.79</ele>
        <time>2016-08-22T09:49:48Z</time>
      </trkpt>
      <trkpt lat="49.33637" lon="-0.46248">
        <ele>9.75</ele>
        <time>2016-08-22T09:50:02Z</time>
      </trkpt>
      <trkpt lat="49.33609" lon="-0.46197">
        <ele>9.75</ele>
        <time>2016-08-22T09:50:19Z</time>
      </trkpt>
      <trkpt lat="49.3359" lon="-0.46177">
        <ele>9.75</ele>
        <time>2016-08-22T09:50:40Z</time>
      </trkpt>
      <trkpt lat="49.33586" lon="-0.46165">
        <ele>10.23</ele>
        <time>2016-08-22T09:50:45Z</time>
      </trkpt>
      <trkpt lat="49.33585" lon="-0.46157">
        <ele>9.75</ele>
        <time>2016-08-22T09:50:48Z</time>
      </trkpt>
      <trkpt lat="49.33588" lon="-0.46144">
        <ele>9.75</ele>
        <time>2016-08-22T09:50:52Z</time>
      </trkpt>
      <trkpt lat="49.33622" lon="-0.46078">
        <ele>10.23</ele>
        <time>2016-08-22T09:51:11Z</time>
      </trkpt>
      <trkpt lat="49.33648" lon="-0.46072">
        <ele>9.75</ele>
        <time>2016-08-22T09:51:23Z</time>
      </trkpt>
      <trkpt lat="49.33645" lon="-0.46101">
        <ele>10.71</ele>
        <time>2016-08-22T09:51:38Z</time>
      </trkpt>
      <trkpt lat="49.33661" lon="-0.46127">
        <ele>10.71</ele>
        <time>2016-08-22T09:51:58Z</time>
      </trkpt>
      <trkpt lat="49.33667" lon="-0.46126">
        <ele>10.71</ele>
        <time>2016-08-22T09:52:03Z</time>
      </trkpt>
      <trkpt lat="49.33688" lon="-0.46085">
        <ele>9.75</ele>
        <time>2016-08-22T09:52:26Z</time>
      </trkpt>
      <trkpt lat="49.33688" lon="-0.46068">
        <ele>10.23</ele>
        <time>2016-08-22T09:52:45Z</time>
      </trkpt>
      <trkpt lat="49.33688" lon="-0.46045">
        <ele>9.75</ele>
        <time>2016-08-22T09:52:54Z</time>
      </trkpt>
      <trkpt lat="49.33687" lon="-0.45985">
        <ele>8.79</ele>
        <time>2016-08-22T09:53:07Z</time>
      </trkpt>
      <trkpt lat="49.33673" lon="-0.45912">
        <ele>8.79</ele>
        <time>2016-08-22T09:54:18Z</time>
      </trkpt>
      <trkpt lat="49.33672" lon="-0.45898">
        <ele>9.75</ele>
        <time>2016-08-22T09:54:38Z</time>
      </trkpt>
      <trkpt lat="49.33672" lon="-0.45848">
        <ele>8.31</ele>
        <time>2016-08-22T09:56:13Z</time>
      </trkpt>
      <trkpt lat="49.33666" lon="-0.45838">
        <ele>8.31</ele>
        <time>2016-08-22T09:56:21Z</time>
      </trkpt>
      <trkpt lat="49.33666" lon="-0.45791">
        <ele>8.79</ele>
        <time>2016-08-22T09:56:39Z</time>
      </trkpt>
      <trkpt lat="49.33674" lon="-0.45782">
        <ele>9.27</ele>
        <time>2016-08-22T09:56:52Z</time>
      </trkpt>
      <trkpt lat="49.3368" lon="-0.45781">
        <ele>9.27</ele>
        <time>2016-08-22T09:56:56Z</time>
      </trkpt>
      <trkpt lat="49.33685" lon="-0.45775">
        <ele>9.27</ele>
        <time>2016-08-22T09:57:00Z</time>
      </trkpt>
      <trkpt lat="49.33689" lon="-0.45766">
        <ele>9.75</ele>
        <time>2016-08-22T09:58:19Z</time>
      </trkpt>
      <trkpt lat="49.33681" lon="-0.45776">
        <ele>9.27</ele>
        <time>2016-08-22T09:58:32Z</time>
      </trkpt>
      <trkpt lat="49.33674" lon="-0.45789">
        <ele>8.79</ele>
        <time>2016-08-22T09:58:41Z</time>
      </trkpt>
      <trkpt lat="49.33664" lon="-0.45801">
        <ele>8.31</ele>
        <time>2016-08-22T09:58:56Z</time>
      </trkpt>
      <trkpt lat="49.33658" lon="-0.45838">
        <ele>7.83</ele>
        <time>2016-08-22T09:59:15Z</time>
      </trkpt>
      <trkpt lat="49.33664" lon="-0.45877">
        <ele>7.35</ele>
        <time>2016-08-22T09:59:37Z</time>
      </trkpt>
      <trkpt lat="49.33674" lon="-0.45893">
        <ele>7.35</ele>
        <time>2016-08-22T09:59:48Z</time>
      </trkpt>
      <trkpt lat="49.33673" lon="-0.45905">
        <ele>7.83</ele>
        <time>2016-08-22T10:00:06Z</time>
      </trkpt>
      <trkpt lat="49.33669" lon="-0.45911">
        <ele>7.35</ele>
        <time>2016-08-22T10:00:16Z</time>
      </trkpt>
      <trkpt lat="49.33649" lon="-0.45927">
        <ele>7.35</ele>
        <time>2016-08-22T10:00:44Z</time>
      </trkpt>
      <trkpt lat="49.33604" lon="-0.45985">
        <ele>8.79</ele>
        <time>2016-08-22T10:01:10Z</time>
      </trkpt>
      <trkpt lat="49.33589" lon="-0.46004">
        <ele>7.83</ele>
        <time>2016-08-22T10:01:18Z</time>
      </trkpt>
      <trkpt lat="49.33587" lon="-0.46007">
        <ele>7.83</ele>
        <time>2016-08-22T10:01:22Z</time>
      </trkpt>
      <trkpt lat="49.33577" lon="-0.46021">
        <ele>7.83</ele>
        <time>2016-08-22T10:01:28Z</time>
      </trkpt>
      <trkpt lat="49.33509" lon="-0.46112">
        <ele>8.31</ele>
        <time>2016-08-22T10:02:03Z</time>
      </trkpt>
      <trkpt lat="49.3352" lon="-0.46143">
        <ele>7.35</ele>
        <time>2016-08-22T10:02:19Z</time>
      </trkpt>
      <trkpt lat="49.33557" lon="-0.46155">
        <ele>7.35</ele>
        <time>2016-08-22T10:02:39Z</time>
      </trkpt>
      <trkpt lat="49.33598" lon="-0.46181">
        <ele>8.31</ele>
        <time>2016-08-22T10:02:55Z</time>
      </trkpt>
      <trkpt lat="49.33608" lon="-0.46191">
        <ele>8.31</ele>
        <time>2016-08-22T10:02:59Z</time>
      </trkpt>
      <trkpt lat="49.33662" lon="-0.46284">
        <ele>8.31</ele>
        <time>2016-08-22T10:03:19Z</time>
      </trkpt>
      <trkpt lat="49.33686" lon="-0.46371">
        <ele>7.83</ele>
        <time>2016-08-22T10:03:35Z</time>
      </trkpt>
      <trkpt lat="49.33695" lon="-0.46457">
        <ele>8.79</ele>
        <time>2016-08-22T10:03:54Z</time>
      </trkpt>
      <trkpt lat="49.3368" lon="-0.46494">
        <ele>8.79</ele>
        <time>2016-08-22T10:04:13Z</time>
      </trkpt>
      <trkpt lat="49.33666" lon="-0.46504">
        <ele>8.31</ele>
        <time>2016-08-22T10:04:26Z</time>
      </trkpt>
      <trkpt lat="49.33627" lon="-0.46505">
        <ele>7.83</ele>
        <time>2016-08-22T10:04:41Z</time>
      </trkpt>
      <trkpt lat="49.33521" lon="-0.46562">
        <ele>6.39</ele>
        <time>2016-08-22T10:05:12Z</time>
      </trkpt>
      <trkpt lat="49.33485" lon="-0.4657">
        <ele>7.35</ele>
        <time>2016-08-22T10:05:28Z</time>
      </trkpt>
      <trkpt lat="49.3348" lon="-0.46568">
        <ele>6.87</ele>
        <time>2016-08-22T10:05:43Z</time>
      </trkpt>
      <trkpt lat="49.33474" lon="-0.46549">
        <ele>6.87</ele>
        <time>2016-08-22T10:05:48Z</time>
      </trkpt>
      <trkpt lat="49.33472" lon="-0.4647">
        <ele>7.83</ele>
        <time>2016-08-22T10:06:02Z</time>
      </trkpt>
      <trkpt lat="49.33469" lon="-0.46447">
        <ele>7.35</ele>
        <time>2016-08-22T10:06:06Z</time>
      </trkpt>
      <trkpt lat="49.33468" lon="-0.46333">
        <ele>8.31</ele>
        <time>2016-08-22T10:06:22Z</time>
      </trkpt>
      <trkpt lat="49.33468" lon="-0.4632">
        <ele>8.31</ele>
        <time>2016-08-22T10:06:24Z</time>
      </trkpt>
      <trkpt lat="49.33462" lon="-0.4629">
        <ele>7.83</ele>
        <time>2016-08-22T10:06:28Z</time>
      </trkpt>
      <trkpt lat="49.33456" lon="-0.46279">
        <ele>8.31</ele>
        <time>2016-08-22T10:06:30Z</time>
      </trkpt>
      <trkpt lat="49.33442" lon="-0.46262">
        <ele>8.31</ele>
        <time>2016-08-22T10:06:34Z</time>
      </trkpt>
      <trkpt lat="49.33402" lon="-0.46237">
        <ele>7.83</ele>
        <time>2016-08-22T10:06:52Z</time>
      </trkpt>
      <trkpt lat="49.33361" lon="-0.4627">
        <ele>7.83</ele>
        <time>2016-08-22T10:07:13Z</time>
      </trkpt>
      <trkpt lat="49.33311" lon="-0.46348">
        <ele>7.83</ele>
        <time>2016-08-22T10:07:31Z</time>
      </trkpt>
      <trkpt lat="49.33272" lon="-0.46399">
        <ele>7.83</ele>
        <time>2016-08-22T10:07:49Z</time>
      </trkpt>
      <trkpt lat="49.33225" lon="-0.46466">
        <ele>7.83</ele>
        <time>2016-08-22T10:08:10Z</time>
      </trkpt>
      <trkpt lat="49.33185" lon="-0.46478">
        <ele>7.35</ele>
        <time>2016-08-22T10:08:27Z</time>
      </trkpt>
      <trkpt lat="49.33161" lon="-0.46443">
        <ele>7.35</ele>
        <time>2016-08-22T10:08:44Z</time>
      </trkpt>
      <trkpt lat="49.33162" lon="-0.46413">
        <ele>6.87</ele>
        <time>2016-08-22T10:09:01Z</time>
      </trkpt>
      <trkpt lat="49.33168" lon="-0.46399">
        <ele>7.83</ele>
        <time>2016-08-22T10:09:08Z</time>
      </trkpt>
      <trkpt lat="49.3322" lon="-0.46327">
        <ele>7.83</ele>
        <time>2016-08-22T10:09:21Z</time>
      </trkpt>
      <trkpt lat="49.3328" lon="-0.4624">
        <ele>7.35</ele>
        <time>2016-08-22T10:09:42Z</time>
      </trkpt>
      <trkpt lat="49.33298" lon="-0.46207">
        <ele>8.31</ele>
        <time>2016-08-22T10:10:25Z</time>
      </trkpt>
      <trkpt lat="49.33333" lon="-0.46167">
        <ele>7.35</ele>
        <time>2016-08-22T10:10:41Z</time>
      </trkpt>
      <trkpt lat="49.33345" lon="-0.46165">
        <ele>7.83</ele>
        <time>2016-08-22T10:10:46Z</time>
      </trkpt>
      <trkpt lat="49.33358" lon="-0.4616">
        <ele>7.83</ele>
        <time>2016-08-22T10:11:03Z</time>
      </trkpt>
      <trkpt lat="49.3339" lon="-0.4612">
        <ele>6.87</ele>
        <time>2016-08-22T10:11:29Z</time>
      </trkpt>
      <trkpt lat="49.33396" lon="-0.46113">
        <ele>7.35</ele>
        <time>2016-08-22T10:11:35Z</time>
      </trkpt>
      <trkpt lat="49.33431" lon="-0.46065">
        <ele>7.35</ele>
        <time>2016-08-22T10:11:57Z</time>
      </trkpt>
      <trkpt lat="49.33461" lon="-0.46025">
        <ele>7.35</ele>
        <time>2016-08-22T10:12:18Z</time>
      </trkpt>
      <trkpt lat="49.33492" lon="-0.4598">
        <ele>7.83</ele>
        <time>2016-08-22T10:12:40Z</time>
      </trkpt>
      <trkpt lat="49.33529" lon="-0.45924">
        <ele>7.35</ele>
        <time>2016-08-22T10:13:05Z</time>
      </trkpt>
      <trkpt lat="49.33553" lon="-0.45882">
        <ele>7.35</ele>
        <time>2016-08-22T10:13:30Z</time>
      </trkpt>
      <trkpt lat="49.33555" lon="-0.45871">
        <ele>7.35</ele>
        <time>2016-08-22T10:13:36Z</time>
      </trkpt>
      <trkpt lat="49.33573" lon="-0.45848">
        <ele>7.83</ele>
        <time>2016-08-22T10:13:57Z</time>
      </trkpt>
      <trkpt lat="49.33576" lon="-0.45845">
        <ele>7.35</ele>
        <time>2016-08-22T10:14:12Z</time>
      </trkpt>
      <trkpt lat="49.33583" lon="-0.45839">
        <ele>6.87</ele>
        <time>2016-08-22T10:15:26Z</time>
      </trkpt>
      <trkpt lat="49.33594" lon="-0.45827">
        <ele>7.83</ele>
        <time>2016-08-22T10:19:03Z</time>
      </trkpt>
      <trkpt lat="49.33621" lon="-0.45781">
        <ele>7.83</ele>
        <time>2016-08-22T10:19:28Z</time>
      </trkpt>
      <trkpt lat="49.33606" lon="-0.45735">
        <ele>8.79</ele>
        <time>2016-08-22T10:19:46Z</time>
      </trkpt>
      <trkpt lat="49.33604" lon="-0.45693">
        <ele>8.79</ele>
        <time>2016-08-22T10:20:08Z</time>
      </trkpt>
      <trkpt lat="49.33599" lon="-0.45662">
        <ele>9.27</ele>
        <time>2016-08-22T10:20:23Z</time>
      </trkpt>
      <trkpt lat="49.33591" lon="-0.45597">
        <ele>9.27</ele>
        <time>2016-08-22T10:20:41Z</time>
      </trkpt>
      <trkpt lat="49.3358" lon="-0.45516">
        <ele>8.31</ele>
        <time>2016-08-22T10:21:06Z</time>
      </trkpt>
      <trkpt lat="49.33574" lon="-0.45449">
        <ele>9.27</ele>
        <time>2016-08-22T10:21:23Z</time>
      </trkpt>
      <trkpt lat="49.33566" lon="-0.45401">
        <ele>8.31</ele>
        <time>2016-08-22T10:21:33Z</time>
      </trkpt>
      <trkpt lat="49.33551" lon="-0.45288">
        <ele>8.31</ele>
        <time>2016-08-22T10:21:54Z</time>
      </trkpt>
      <trkpt lat="49.33544" lon="-0.45228">
        <ele>7.83</ele>
        <time>2016-08-22T10:22:07Z</time>
      </trkpt>
      <trkpt lat="49.3354" lon="-0.45196">
        <ele>8.31</ele>
        <time>2016-08-22T10:22:14Z</time>
      </trkpt>
      <trkpt lat="49.3356" lon="-0.45179">
        <ele>8.79</ele>
        <time>2016-08-22T10:22:23Z</time>
      </trkpt>
      <trkpt lat="49.33561" lon="-0.45163">
        <ele>8.31</ele>
        <time>2016-08-22T10:22:27Z</time>
      </trkpt>
      <trkpt lat="49.33555" lon="-0.45084">
        <ele>7.83</ele>
        <time>2016-08-22T10:22:47Z</time>
      </trkpt>
      <trkpt lat="49.33548" lon="-0.44976">
        <ele>7.83</ele>
        <time>2016-08-22T10:23:09Z</time>
      </trkpt>
      <trkpt lat="49.33543" lon="-0.44862">
        <ele>8.79</ele>
        <time>2016-08-22T10:23:28Z</time>
      </trkpt>
      <trkpt lat="49.33541" lon="-0.44757">
        <ele>8.79</ele>
        <time>2016-08-22T10:23:47Z</time>
      </trkpt>
      <trkpt lat="49.33539" lon="-0.44682">
        <ele>8.79</ele>
        <time>2016-08-22T10:23:57Z</time>
      </trkpt>
      <trkpt lat="49.33537" lon="-0.44671">
        <ele>8.79</ele>
        <time>2016-08-22T10:23:59Z</time>
      </trkpt>
      <trkpt lat="49.33532" lon="-0.44605">
        <ele>8.79</ele>
        <time>2016-08-22T10:24:15Z</time>
      </trkpt>
      <trkpt lat="49.33538" lon="-0.44517">
        <ele>7.83</ele>
        <time>2016-08-22T10:24:36Z</time>
      </trkpt>
      <trkpt lat="49.33555" lon="-0.44499">
        <ele>8.31</ele>
        <time>2016-08-22T10:24:43Z</time>
      </trkpt>
      <trkpt lat="49.33547" lon="-0.44419">
        <ele>8.79</ele>
        <time>2016-08-22T10:24:57Z</time>
      </trkpt>
      <trkpt lat="49.33532" lon="-0.44306">
        <ele>9.27</ele>
        <time>2016-08-22T10:25:17Z</time>
      </trkpt>
      <trkpt lat="49.33524" lon="-0.44226">
        <ele>9.27</ele>
        <time>2016-08-22T10:25:39Z</time>
      </trkpt>
      <trkpt lat="49.33522" lon="-0.4422">
        <ele>9.27</ele>
        <time>2016-08-22T10:26:08Z</time>
      </trkpt>
      <trkpt lat="49.33511" lon="-0.4421">
        <ele>9.27</ele>
        <time>2016-08-22T10:26:15Z</time>
      </trkpt>
      <trkpt lat="49.3347" lon="-0.44191">
        <ele>5.91</ele>
        <time>2016-08-22T10:26:28Z</time>
      </trkpt>
      <trkpt lat="49.33368" lon="-0.44143">
        <ele>5.42</ele>
        <time>2016-08-22T10:26:50Z</time>
      </trkpt>
      <trkpt lat="49.33321" lon="-0.44137">
        <ele>7.35</ele>
        <time>2016-08-22T10:27:03Z</time>
      </trkpt>
      <trkpt lat="49.33311" lon="-0.44139">
        <ele>6.39</ele>
        <time>2016-08-22T10:27:09Z</time>
      </trkpt>
      <trkpt lat="49.33297" lon="-0.4411">
        <ele>6.87</ele>
        <time>2016-08-22T10:27:23Z</time>
      </trkpt>
      <trkpt lat="49.33273" lon="-0.44105">
        <ele>6.39</ele>
        <time>2016-08-22T10:27:28Z</time>
      </trkpt>
      <trkpt lat="49.33213" lon="-0.44134">
        <ele>6.39</ele>
        <time>2016-08-22T10:27:45Z</time>
      </trkpt>
      <trkpt lat="49.33175" lon="-0.44193">
        <ele>6.87</ele>
        <time>2016-08-22T10:28:00Z</time>
      </trkpt>
      <trkpt lat="49.33137" lon="-0.44266">
        <ele>6.87</ele>
        <time>2016-08-22T10:28:17Z</time>
      </trkpt>
      <trkpt lat="49.3312" lon="-0.44297">
        <ele>6.87</ele>
        <time>2016-08-22T10:28:29Z</time>
      </trkpt>
      <trkpt lat="49.33087" lon="-0.44243">
        <ele>8.79</ele>
        <time>2016-08-22T10:28:44Z</time>
      </trkpt>
      <trkpt lat="49.33082" lon="-0.44235">
        <ele>9.27</ele>
        <time>2016-08-22T10:28:46Z</time>
      </trkpt>
      <trkpt lat="49.33054" lon="-0.44227">
        <ele>9.75</ele>
        <time>2016-08-22T10:28:52Z</time>
      </trkpt>
      <trkpt lat="49.33" lon="-0.44238">
        <ele>12.15</ele>
        <time>2016-08-22T10:29:10Z</time>
      </trkpt>
      <trkpt lat="49.32988" lon="-0.4424">
        <ele>12.63</ele>
        <time>2016-08-22T10:29:26Z</time>
      </trkpt>
      <trkpt lat="49.32975" lon="-0.4418">
        <ele>12.63</ele>
        <time>2016-08-22T10:29:42Z</time>
      </trkpt>
      <trkpt lat="49.32969" lon="-0.4395">
        <ele>12.63</ele>
        <time>2016-08-22T10:30:07Z</time>
      </trkpt>
      <trkpt lat="49.3296" lon="-0.43801">
        <ele>12.15</ele>
        <time>2016-08-22T10:30:27Z</time>
      </trkpt>
      <trkpt lat="49.32953" lon="-0.43637">
        <ele>11.67</ele>
        <time>2016-08-22T10:30:47Z</time>
      </trkpt>
      <trkpt lat="49.32942" lon="-0.43447">
        <ele>12.63</ele>
        <time>2016-08-22T10:31:11Z</time>
      </trkpt>
      <trkpt lat="49.32929" lon="-0.43338">
        <ele>12.15</ele>
        <time>2016-08-22T10:31:30Z</time>
      </trkpt>
      <trkpt lat="49.32928" lon="-0.43323">
        <ele>12.63</ele>
        <time>2016-08-22T10:31:35Z</time>
      </trkpt>
      <trkpt lat="49.32925" lon="-0.43246">
        <ele>11.19</ele>
        <time>2016-08-22T10:31:51Z</time>
      </trkpt>
      <trkpt lat="49.32913" lon="-0.43076">
        <ele>9.27</ele>
        <time>2016-08-22T10:32:10Z</time>
      </trkpt>
      <trkpt lat="49.32898" lon="-0.42858">
        <ele>8.31</ele>
        <time>2016-08-22T10:32:35Z</time>
      </trkpt>
      <trkpt lat="49.32875" lon="-0.42446">
        <ele>8.31</ele>
        <time>2016-08-22T10:33:30Z</time>
      </trkpt>
      <trkpt lat="49.32888" lon="-0.42448">
        <ele>8.31</ele>
        <time>2016-08-22T10:33:34Z</time>
      </trkpt>
      <trkpt lat="49.32957" lon="-0.42445">
        <ele>7.83</ele>
        <time>2016-08-22T10:33:56Z</time>
      </trkpt>
      <trkpt lat="49.32976" lon="-0.42449">
        <ele>7.83</ele>
        <time>2016-08-22T10:34:14Z</time>
      </trkpt>
      <trkpt lat="49.33042" lon="-0.42297">
        <ele>9.27</ele>
        <time>2016-08-22T10:34:57Z</time>
      </trkpt>
      <trkpt lat="49.33162" lon="-0.42223">
        <ele>8.31</ele>
        <time>2016-08-22T10:36:26Z</time>
      </trkpt>
      <trkpt lat="49.33344" lon="-0.42175">
        <ele>7.83</ele>
        <time>2016-08-22T10:37:29Z</time>
      </trkpt>
      <trkpt lat="49.33342" lon="-0.42135">
        <ele>7.83</ele>
        <time>2016-08-22T10:37:41Z</time>
      </trkpt>
      <trkpt lat="49.33338" lon="-0.42111">
        <ele>8.31</ele>
        <time>2016-08-22T10:37:49Z</time>
      </trkpt>
      <trkpt lat="49.33348" lon="-0.41975">
        <ele>7.83</ele>
        <time>2016-08-22T10:38:18Z</time>
      </trkpt>
      <trkpt lat="49.33344" lon="-0.41861">
        <ele>7.83</ele>
        <time>2016-08-22T10:38:40Z</time>
      </trkpt>
      <trkpt lat="49.33336" lon="-0.41818">
        <ele>7.83</ele>
        <time>2016-08-22T10:38:57Z</time>
      </trkpt>
      <trkpt lat="49.33328" lon="-0.41795">
        <ele>8.31</ele>
        <time>2016-08-22T10:39:05Z</time>
      </trkpt>
      <trkpt lat="49.33331" lon="-0.41682">
        <ele>8.79</ele>
        <time>2016-08-22T10:39:39Z</time>
      </trkpt>
      <trkpt lat="49.33332" lon="-0.41572">
        <ele>8.79</ele>
        <time>2016-08-22T10:40:37Z</time>
      </trkpt>
      <trkpt lat="49.33324" lon="-0.41503">
        <ele>8.31</ele>
        <time>2016-08-22T10:41:04Z</time>
      </trkpt>
      <trkpt lat="49.33321" lon="-0.41438">
        <ele>8.79</ele>
        <time>2016-08-22T10:41:22Z</time>
      </trkpt>
      <trkpt lat="49.33322" lon="-0.41363">
        <ele>8.31</ele>
        <time>2016-08-22T10:41:42Z</time>
      </trkpt>
      <trkpt lat="49.33322" lon="-0.41292">
        <ele>8.79</ele>
        <time>2016-08-22T10:42:01Z</time>
      </trkpt>
      <trkpt lat="49.3332" lon="-0.41231">
        <ele>9.27</ele>
        <time>2016-08-22T10:42:21Z</time>
      </trkpt>
      <trkpt lat="49.33321" lon="-0.41154">
        <ele>8.79</ele>
        <time>2016-08-22T10:42:42Z</time>
      </trkpt>
      <trkpt lat="49.33325" lon="-0.41104">
        <ele>8.31</ele>
        <time>2016-08-22T10:42:59Z</time>
      </trkpt>
      <trkpt lat="49.33332" lon="-0.41106">
        <ele>8.31</ele>
        <time>2016-08-22T10:43:12Z</time>
      </trkpt>
      <trkpt lat="49.33379" lon="-0.4109">
        <ele>7.83</ele>
        <time>2016-08-22T10:43:28Z</time>
      </trkpt>
      <trkpt lat="49.334" lon="-0.41083">
        <ele>7.35</ele>
        <time>2016-08-22T10:43:33Z</time>
      </trkpt>
      <trkpt lat="49.33437" lon="-0.4107">
        <ele>7.35</ele>
        <time>2016-08-22T10:43:50Z</time>
      </trkpt>
      <trkpt lat="49.33466" lon="-0.41064">
        <ele>7.35</ele>
        <time>2016-08-22T10:44:11Z</time>
      </trkpt>
      <trkpt lat="49.33479" lon="-0.41059">
        <ele>7.35</ele>
        <time>2016-08-22T10:44:14Z</time>
      </trkpt>
      <trkpt lat="49.33515" lon="-0.41046">
        <ele>7.83</ele>
        <time>2016-08-22T10:44:58Z</time>
      </trkpt>
      <trkpt lat="49.33521" lon="-0.41007">
        <ele>7.83</ele>
        <time>2016-08-22T10:45:15Z</time>
      </trkpt>
      <trkpt lat="49.33507" lon="-0.40935">
        <ele>7.83</ele>
        <time>2016-08-22T10:45:31Z</time>
      </trkpt>
      <trkpt lat="49.3347" lon="-0.40695">
        <ele>8.79</ele>
        <time>2016-08-22T10:46:13Z</time>
      </trkpt>
      <trkpt lat="49.33455" lon="-0.40603">
        <ele>8.31</ele>
        <time>2016-08-22T10:46:32Z</time>
      </trkpt>
      <trkpt lat="49.33435" lon="-0.4049">
        <ele>8.31</ele>
        <time>2016-08-22T10:46:54Z</time>
      </trkpt>
      <trkpt lat="49.3342" lon="-0.40385">
        <ele>7.83</ele>
        <time>2016-08-22T10:47:13Z</time>
      </trkpt>
      <trkpt lat="49.33402" lon="-0.40302">
        <ele>7.83</ele>
        <time>2016-08-22T10:47:30Z</time>
      </trkpt>
      <trkpt lat="49.33394" lon="-0.40295">
        <ele>7.83</ele>
        <time>2016-08-22T10:47:35Z</time>
      </trkpt>
      <trkpt lat="49.33386" lon="-0.40282">
        <ele>9.27</ele>
        <time>2016-08-22T10:47:46Z</time>
      </trkpt>
      <trkpt lat="49.3338" lon="-0.40284">
        <ele>9.27</ele>
        <time>2016-08-22T10:47:50Z</time>
      </trkpt>
      <trkpt lat="49.33372" lon="-0.40273">
        <ele>10.23</ele>
        <time>2016-08-22T10:47:56Z</time>
      </trkpt>
      <trkpt lat="49.33356" lon="-0.40215">
        <ele>10.71</ele>
        <time>2016-08-22T10:48:10Z</time>
      </trkpt>
      <trkpt lat="49.33346" lon="-0.40139">
        <ele>11.19</ele>
        <time>2016-08-22T10:48:24Z</time>
      </trkpt>
      <trkpt lat="49.33326" lon="-0.40106">
        <ele>12.15</ele>
        <time>2016-08-22T10:48:39Z</time>
      </trkpt>
      <trkpt lat="49.33311" lon="-0.40103">
        <ele>10.71</ele>
        <time>2016-08-22T10:49:02Z</time>
      </trkpt>
      <trkpt lat="49.33309" lon="-0.40104">
        <ele>11.19</ele>
        <time>2016-08-22T10:49:06Z</time>
      </trkpt>
      <trkpt lat="49.33304" lon="-0.40087">
        <ele>11.67</ele>
        <time>2016-08-22T10:49:10Z</time>
      </trkpt>
      <trkpt lat="49.33288" lon="-0.3994">
        <ele>11.19</ele>
        <time>2016-08-22T10:49:30Z</time>
      </trkpt>
      <trkpt lat="49.33274" lon="-0.39788">
        <ele>10.23</ele>
        <time>2016-08-22T10:49:49Z</time>
      </trkpt>
      <trkpt lat="49.33259" lon="-0.39664">
        <ele>11.19</ele>
        <time>2016-08-22T10:50:07Z</time>
      </trkpt>
      <trkpt lat="49.33243" lon="-0.39487">
        <ele>10.23</ele>
        <time>2016-08-22T10:50:31Z</time>
      </trkpt>
      <trkpt lat="49.33221" lon="-0.39406">
        <ele>9.27</ele>
        <time>2016-08-22T10:50:47Z</time>
      </trkpt>
      <trkpt lat="49.33189" lon="-0.39323">
        <ele>8.31</ele>
        <time>2016-08-22T10:51:06Z</time>
      </trkpt>
      <trkpt lat="49.3318" lon="-0.39265">
        <ele>8.31</ele>
        <time>2016-08-22T10:51:24Z</time>
      </trkpt>
      <trkpt lat="49.33156" lon="-0.39173">
        <ele>8.79</ele>
        <time>2016-08-22T10:51:49Z</time>
      </trkpt>
      <trkpt lat="49.33129" lon="-0.3909">
        <ele>8.79</ele>
        <time>2016-08-22T10:52:12Z</time>
      </trkpt>
      <trkpt lat="49.33115" lon="-0.39022">
        <ele>9.27</ele>
        <time>2016-08-22T10:52:55Z</time>
      </trkpt>
      <trkpt lat="49.33099" lon="-0.3897">
        <ele>9.27</ele>
        <time>2016-08-22T10:53:12Z</time>
      </trkpt>
      <trkpt lat="49.33078" lon="-0.38885">
        <ele>9.27</ele>
        <time>2016-08-22T10:53:34Z</time>
      </trkpt>
      <trkpt lat="49.33055" lon="-0.38765">
        <ele>8.79</ele>
        <time>2016-08-22T10:54:01Z</time>
      </trkpt>
      <trkpt lat="49.33038" lon="-0.38694">
        <ele>8.79</ele>
        <time>2016-08-22T10:54:15Z</time>
      </trkpt>
      <trkpt lat="49.33018" lon="-0.38594">
        <ele>9.75</ele>
        <time>2016-08-22T10:54:32Z</time>
      </trkpt>
      <trkpt lat="49.32942" lon="-0.3828">
        <ele>9.27</ele>
        <time>2016-08-22T10:55:24Z</time>
      </trkpt>
      <trkpt lat="49.32907" lon="-0.38152">
        <ele>8.79</ele>
        <time>2016-08-22T10:55:45Z</time>
      </trkpt>
      <trkpt lat="49.32875" lon="-0.38034">
        <ele>8.79</ele>
        <time>2016-08-22T10:56:05Z</time>
      </trkpt>
      <trkpt lat="49.32857" lon="-0.3797">
        <ele>8.79</ele>
        <time>2016-08-22T10:56:21Z</time>
      </trkpt>
      <trkpt lat="49.32846" lon="-0.37955">
        <ele>8.31</ele>
        <time>2016-08-22T10:56:45Z</time>
      </trkpt>
      <trkpt lat="49.32814" lon="-0.37979">
        <ele>9.27</ele>
        <time>2016-08-22T10:57:00Z</time>
      </trkpt>
      <trkpt lat="49.32783" lon="-0.37996">
        <ele>10.23</ele>
        <time>2016-08-22T10:57:14Z</time>
      </trkpt>
      <trkpt lat="49.32733" lon="-0.38036">
        <ele>12.15</ele>
        <time>2016-08-22T10:57:29Z</time>
      </trkpt>
      <trkpt lat="49.32681" lon="-0.38074">
        <ele>12.15</ele>
        <time>2016-08-22T10:57:48Z</time>
      </trkpt>
      <trkpt lat="49.32665" lon="-0.38078">
        <ele>12.63</ele>
        <time>2016-08-22T10:59:04Z</time>
      </trkpt>
    </trkseg>
  </trk>
</gpx>